createdAt,value
2018-04-08T00:01:19.263Z,95321.89
2018-04-08T00:03:47.682Z,95312.89
2018-04-08T00:06:16.126Z,95317.92
2018-04-08T00:08:44.608Z,95260.05
2018-04-08T00:11:13.008Z,95313.66
2018-04-08T00:13:41.413Z,95295.55
2018-04-08T00:16:09.861Z,95317.26
2018-04-08T00:18:38.316Z,95226.94
2018-04-08T00:21:06.756Z,95319.03
2018-04-08T00:23:35.207Z,95324.05
2018-04-08T00:26:03.628Z,95327.55
2018-04-08T00:28:32.081Z,95323.52
2018-04-08T00:31:00.528Z,95325.89
2018-04-08T00:33:28.927Z,95321.82
2018-04-08T00:35:57.377Z,95228.33
2018-04-08T00:38:25.849Z,95325.48
2018-04-08T00:40:54.266Z,95303.59
2018-04-08T00:43:22.715Z,95329.04
2018-04-08T00:45:51.214Z,95323.56
2018-04-08T00:48:19.637Z,95318.12
2018-04-08T00:50:48.055Z,95326.50
2018-04-08T00:53:16.590Z,95326.97
2018-04-08T00:55:44.972Z,95325.31
2018-04-08T00:58:13.130Z,95325.41
2018-04-08T01:00:41.368Z,95328.37
2018-04-08T01:03:09.478Z,95331.13
2018-04-08T01:05:37.649Z,95335.16
2018-04-08T01:08:05.880Z,95331.38
2018-04-08T01:10:34.041Z,95198.20
2018-04-08T01:13:02.565Z,95328.60
2018-04-08T01:15:31.028Z,95325.52
2018-04-08T01:17:59.178Z,95318.41
2018-04-08T01:20:27.621Z,95324.62
2018-04-08T01:22:56.097Z,95317.67
2018-04-08T01:25:24.484Z,95320.45
2018-04-08T01:27:52.936Z,95308.93
2018-04-08T01:30:21.398Z,95315.70
2018-04-08T01:32:49.824Z,95309.55
2018-04-08T01:35:18.360Z,95311.51
2018-04-08T01:37:46.738Z,95263.14
2018-04-08T01:40:15.194Z,95302.73
2018-04-08T01:42:43.669Z,95303.09
2018-04-08T01:45:12.125Z,95306.31
2018-04-08T01:47:40.562Z,95306.58
2018-04-08T01:50:09.061Z,95307.20
2018-04-08T01:52:37.456Z,95222.25
2018-04-08T01:55:05.841Z,95305.01
2018-04-08T01:57:34.224Z,95307.63
2018-04-08T02:00:02.697Z,95264.82
2018-04-08T02:02:31.146Z,95310.12
2018-04-08T02:04:59.563Z,95309.62
2018-04-08T02:07:28.022Z,95303.92
2018-04-08T02:09:56.440Z,95305.03
2018-04-08T02:12:24.866Z,95306.31
2018-04-08T02:14:53.305Z,95304.53
2018-04-08T02:17:21.753Z,95299.72
2018-04-08T02:19:50.142Z,95301.16
2018-04-08T02:22:18.572Z,95296.70
2018-04-08T02:24:47.060Z,95172.64
2018-04-08T02:27:15.496Z,95300.55
2018-04-08T02:29:43.990Z,95298.23
2018-04-08T02:32:12.404Z,95301.26
2018-04-08T02:34:40.851Z,95288.61
2018-04-08T02:37:09.472Z,95297.34
2018-04-08T02:39:37.987Z,95252.94
2018-04-08T02:42:06.435Z,95191.50
2018-04-08T02:44:34.817Z,95287.56
2018-04-08T02:47:03.249Z,95289.38
2018-04-08T02:49:31.669Z,95294.64
2018-04-08T02:52:00.133Z,95291.75
2018-04-08T02:54:28.678Z,95294.84
2018-04-08T02:56:57.184Z,95292.95
2018-04-08T02:59:25.580Z,95297.15
2018-04-08T03:01:54.137Z,95298.13
2018-04-08T03:04:22.559Z,95293.56
2018-04-08T03:06:51.019Z,95296.56
2018-04-08T03:09:19.490Z,95295.06
2018-04-08T03:11:47.876Z,95297.02
2018-04-08T03:14:16.275Z,95290.84
2018-04-08T03:16:44.695Z,95289.45
2018-04-08T03:19:13.091Z,95290.16
2018-04-08T03:21:41.537Z,95276.59
2018-04-08T03:24:09.944Z,95296.28
2018-04-08T03:26:38.397Z,95310.34
2018-04-08T03:29:06.832Z,95236.08
2018-04-08T03:31:35.310Z,95308.52
2018-04-08T03:34:03.710Z,95304.21
2018-04-08T03:36:32.320Z,95315.38
2018-04-08T03:39:00.768Z,95307.77
2018-04-08T03:41:29.220Z,95314.27
2018-04-08T03:43:57.873Z,95317.50
2018-04-08T03:46:26.281Z,95312.50
2018-04-08T03:48:54.755Z,95238.98
2018-04-08T03:51:23.224Z,95318.17
2018-04-08T03:53:51.648Z,95316.45
2018-04-08T03:56:20.100Z,95323.23
2018-04-08T03:58:48.499Z,95318.86
2018-04-08T04:01:16.923Z,95324.95
2018-04-08T04:03:45.353Z,95328.22
2018-04-08T04:06:13.797Z,95310.05
2018-04-08T04:08:42.253Z,95331.42
2018-04-08T04:11:10.763Z,95265.70
2018-04-08T04:13:39.221Z,95334.42
2018-04-08T04:16:07.656Z,95338.47
2018-04-08T04:18:47.882Z,95341.38
2018-04-08T04:24:39.354Z,95333.00
2018-04-08T04:27:07.735Z,95340.81
2018-04-08T04:29:36.194Z,95342.53
2018-04-08T04:32:04.605Z,95344.64
2018-04-08T04:34:33.085Z,95338.95
2018-04-08T04:37:01.532Z,95336.58
2018-04-08T04:39:29.951Z,95320.71
2018-04-08T04:41:58.472Z,95349.05
2018-04-08T04:44:26.912Z,95347.85
2018-04-08T04:46:55.297Z,95340.66
2018-04-08T04:49:23.717Z,95335.05
2018-04-08T04:51:52.122Z,95339.80
2018-04-08T04:54:20.578Z,95337.58
2018-04-08T04:56:49.010Z,95337.53
2018-04-08T04:59:17.384Z,95332.44
2018-04-08T05:01:45.832Z,95340.97
2018-04-08T05:04:14.377Z,95345.45
2018-04-08T05:06:42.828Z,95339.54
2018-04-08T05:09:11.233Z,95336.85
2018-04-08T05:11:39.661Z,95342.63
2018-04-08T05:14:08.093Z,95339.33
2018-04-08T05:16:36.478Z,95343.52
2018-04-08T05:19:04.929Z,95346.61
2018-04-08T05:21:33.329Z,95353.38
2018-04-08T05:24:01.912Z,95351.42
2018-04-08T05:26:30.330Z,95356.38
2018-04-08T05:28:58.712Z,95266.20
2018-04-08T05:31:27.280Z,95349.95
2018-04-08T05:33:55.739Z,95347.70
2018-04-08T05:36:24.215Z,95326.47
2018-04-08T05:38:52.608Z,95350.98
2018-04-08T05:41:21.097Z,95345.69
2018-04-08T05:43:49.500Z,95350.24
2018-04-08T05:46:17.984Z,95350.83
2018-04-08T05:48:46.435Z,95355.14
2018-04-08T05:51:14.923Z,95359.98
2018-04-08T05:53:43.439Z,95356.63
2018-04-08T05:56:11.861Z,95355.97
2018-04-08T05:58:40.300Z,95358.94
2018-04-08T06:01:08.702Z,95360.44
2018-04-08T06:03:37.175Z,95362.38
2018-04-08T06:06:05.585Z,95363.99
2018-04-08T06:08:33.972Z,95345.08
2018-04-08T06:11:02.454Z,95361.44
2018-04-08T06:13:30.856Z,95322.30
2018-04-08T06:15:59.296Z,95337.87
2018-04-08T06:18:27.760Z,95363.18
2018-04-08T06:20:56.218Z,95344.20
2018-04-08T06:23:24.661Z,95346.88
2018-04-08T06:25:53.096Z,95361.91
2018-04-08T06:28:21.545Z,95363.95
2018-04-08T06:30:49.949Z,95360.33
2018-04-08T06:33:18.379Z,95365.55
2018-04-08T06:35:46.869Z,95366.73
2018-04-08T06:38:15.356Z,95347.23
2018-04-08T06:40:43.889Z,95362.44
2018-04-08T06:43:12.400Z,95366.52
2018-04-08T06:45:40.924Z,95360.50
2018-04-08T06:48:09.390Z,95366.95
2018-04-08T06:50:37.855Z,95356.41
2018-04-08T06:53:06.294Z,95357.64
2018-04-08T06:55:34.947Z,95361.47
2018-04-08T06:58:03.399Z,95353.92
2018-04-08T07:00:31.821Z,95352.61
2018-04-08T07:03:00.228Z,95357.89
2018-04-08T07:05:28.702Z,95365.48
2018-04-08T07:07:57.087Z,95365.94
2018-04-08T07:10:25.521Z,95348.02
2018-04-08T07:12:54.056Z,95371.40
2018-04-08T07:15:22.479Z,95344.00
2018-04-08T07:17:50.953Z,95345.55
2018-04-08T07:20:19.382Z,95351.42
2018-04-08T07:22:47.848Z,95359.11
2018-04-08T07:25:16.257Z,95355.29
2018-04-08T07:27:44.665Z,95355.76
2018-04-08T07:30:13.180Z,95360.50
2018-04-08T07:32:41.695Z,95336.71
2018-04-08T07:35:10.062Z,95360.23
2018-04-08T07:37:38.516Z,95362.11
2018-04-08T07:40:06.928Z,95340.41
2018-04-08T07:42:35.385Z,95348.29
2018-04-08T07:45:03.805Z,95349.13
2018-04-08T07:47:32.239Z,95354.66
2018-04-08T07:50:00.740Z,95352.94
2018-04-08T07:52:29.144Z,95351.59
2018-04-08T07:54:57.596Z,95349.77
2018-04-08T07:57:25.985Z,95346.67
2018-04-08T07:59:54.476Z,95341.27
2018-04-08T08:02:22.899Z,95351.42
2018-04-08T08:04:51.337Z,95345.54
2018-04-08T08:07:19.730Z,95360.49
2018-04-08T08:09:48.169Z,95333.50
2018-04-08T08:12:16.598Z,95338.23
2018-04-08T08:14:45.050Z,95342.31
2018-04-08T08:17:13.445Z,95336.83
2018-04-08T08:19:41.868Z,95304.22
2018-04-08T08:22:10.302Z,95339.20
2018-04-08T08:24:38.692Z,95336.53
2018-04-08T08:27:07.074Z,95337.86
2018-04-08T08:29:35.521Z,95336.40
2018-04-08T08:32:03.916Z,95347.85
2018-04-08T08:34:32.297Z,95340.09
2018-04-08T08:37:00.740Z,95341.31
2018-04-08T08:39:29.179Z,95313.59
2018-04-08T08:41:57.613Z,95332.00
2018-04-08T08:44:26.029Z,95335.20
2018-04-08T08:46:54.470Z,95327.05
2018-04-08T08:49:22.915Z,95323.69
2018-04-08T08:51:51.301Z,95323.36
2018-04-08T08:54:19.754Z,95317.96
2018-04-08T08:56:48.157Z,95320.06
2018-04-08T08:59:16.552Z,95317.59
2018-04-08T09:01:45.011Z,95312.06
2018-04-08T09:04:13.388Z,95309.70
2018-04-08T09:06:41.903Z,95303.39
2018-04-08T09:09:10.256Z,95297.87
2018-04-08T09:11:38.679Z,95290.16
2018-04-08T09:14:07.109Z,95266.94
2018-04-08T09:16:35.533Z,95290.06
2018-04-08T09:19:19.835Z,95286.52
2018-04-08T09:21:53.641Z,95270.70
2018-04-08T09:24:33.988Z,95262.11
2018-04-08T09:27:02.384Z,95279.36
2018-04-08T09:29:30.844Z,95266.54
2018-04-08T09:31:59.370Z,95268.22
2018-04-08T09:34:27.781Z,95255.73
2018-04-08T09:36:56.334Z,95248.72
2018-04-08T09:39:24.807Z,95250.59
2018-04-08T09:41:53.200Z,95240.92
2018-04-08T09:44:21.613Z,95250.84
2018-04-08T09:46:50.025Z,95226.75
2018-04-08T09:49:18.409Z,95161.31
2018-04-08T09:51:46.840Z,95243.56
2018-04-08T09:54:15.434Z,95237.92
2018-04-08T09:56:43.869Z,95235.90
2018-04-08T09:59:12.244Z,95231.70
2018-04-08T10:01:55.617Z,95224.99
2018-04-08T10:04:24.053Z,95222.37
2018-04-08T10:06:52.501Z,95219.84
2018-04-08T10:09:20.910Z,95225.34
2018-04-08T10:11:49.390Z,95214.31
2018-04-08T10:14:17.825Z,95213.42
2018-04-08T10:16:46.198Z,95221.67
2018-04-08T10:19:14.628Z,95218.00
2018-04-08T10:21:43.030Z,95217.38
2018-04-08T10:24:11.467Z,95214.95
2018-04-08T10:26:39.873Z,95207.50
2018-04-08T10:29:08.352Z,95206.27
2018-04-08T10:31:36.731Z,95211.96
2018-04-08T10:34:05.215Z,95191.57
2018-04-08T10:36:33.649Z,95214.77
2018-04-08T10:39:02.049Z,95214.69
2018-04-08T10:41:30.500Z,95207.17
2018-04-08T10:43:58.907Z,95200.13
2018-04-08T10:46:27.322Z,95206.58
2018-04-08T10:48:55.824Z,95196.84
2018-04-08T10:51:24.315Z,95193.77
2018-04-08T10:53:52.760Z,95195.23
2018-04-08T10:56:21.449Z,95192.78
2018-04-08T10:58:49.831Z,95192.41
2018-04-08T11:01:18.316Z,95186.22
2018-04-08T11:03:46.818Z,95183.81
2018-04-08T11:06:15.456Z,95181.27
2018-04-08T11:08:43.848Z,95173.77
2018-04-08T11:11:12.325Z,95172.44
2018-04-08T11:13:40.797Z,95178.67
2018-04-08T11:16:09.220Z,95171.83
2018-04-08T11:18:37.637Z,95172.88
2018-04-08T11:21:06.089Z,95165.42
2018-04-08T11:23:34.522Z,95155.08
2018-04-08T11:26:02.925Z,95139.78
2018-04-08T11:28:31.368Z,95157.74
2018-04-08T11:30:59.750Z,95182.47
2018-04-08T11:33:28.184Z,95159.09
2018-04-08T11:35:56.608Z,95154.88
2018-04-08T11:38:25.061Z,95140.11
2018-04-08T11:40:53.436Z,95140.36
2018-04-08T11:43:21.823Z,95135.23
2018-04-08T11:45:50.271Z,95139.33
2018-04-08T11:48:18.725Z,95138.25
2018-04-08T11:50:47.100Z,95132.88
2018-04-08T11:53:15.520Z,95131.80
2018-04-08T11:55:43.941Z,95129.09
2018-04-08T11:58:12.330Z,95126.76
2018-04-08T12:00:40.812Z,95125.91
2018-04-08T12:03:09.227Z,95119.66
2018-04-08T12:05:37.687Z,95118.16
2018-04-08T12:08:06.075Z,95111.52
2018-04-08T12:10:34.572Z,95108.09
2018-04-08T12:13:02.958Z,95113.55
2018-04-08T12:15:31.405Z,95103.86
2018-04-08T12:17:59.954Z,95057.25
2018-04-08T12:20:28.420Z,95099.39
2018-04-08T12:22:56.829Z,95110.67
2018-04-08T12:25:25.304Z,95095.25
2018-04-08T12:27:53.685Z,95092.59
2018-04-08T12:30:22.065Z,95087.11
2018-04-08T12:32:50.497Z,95087.55
2018-04-08T12:35:19.009Z,95080.16
2018-04-08T12:37:47.464Z,95079.91
2018-04-08T12:40:15.913Z,95072.30
2018-04-08T12:42:44.344Z,95076.70
2018-04-08T12:45:12.774Z,95065.13
2018-04-08T12:47:41.218Z,95068.64
2018-04-08T12:50:09.604Z,95064.36
2018-04-08T12:52:38.021Z,95058.47
2018-04-08T12:55:06.401Z,95055.16
2018-04-08T12:57:34.833Z,95048.61
2018-04-08T13:00:03.298Z,95040.27
2018-04-08T13:02:31.773Z,95037.57
2018-04-08T13:05:00.205Z,95043.52
2018-04-08T13:07:28.632Z,95038.75
2018-04-08T13:09:57.098Z,95039.91
2018-04-08T13:12:25.513Z,95036.94
2018-04-08T13:14:53.914Z,95030.41
2018-04-08T13:17:22.301Z,95029.25
2018-04-08T13:19:50.721Z,95035.72
2018-04-08T13:22:19.100Z,95025.58
2018-04-08T13:24:47.529Z,95024.93
2018-04-08T13:27:15.973Z,95036.50
2018-04-08T13:29:44.353Z,95027.23
2018-04-08T13:32:12.768Z,95027.84
2018-04-08T13:34:41.172Z,95015.09
2018-04-08T13:37:09.634Z,95014.38
2018-04-08T13:39:38.032Z,95023.31
2018-04-08T13:42:06.430Z,95020.91
2018-04-08T13:44:34.872Z,95015.81
2018-04-08T13:47:03.274Z,95023.43
2018-04-08T13:49:31.705Z,95008.47
2018-04-08T13:52:00.138Z,94998.03
2018-04-08T13:54:28.561Z,95016.08
2018-04-08T13:56:57.010Z,95010.47
2018-04-08T13:59:25.424Z,94922.36
2018-04-08T14:01:53.925Z,95006.64
2018-04-08T14:04:22.364Z,95001.50
2018-04-08T14:06:50.753Z,95010.28
2018-04-08T14:09:19.172Z,95006.79
2018-04-08T14:11:47.626Z,95000.19
2018-04-08T14:14:15.996Z,95007.61
2018-04-08T14:16:44.423Z,95000.97
2018-04-08T14:19:12.846Z,94978.83
2018-04-08T14:21:41.268Z,94993.45
2018-04-08T14:24:09.797Z,95010.17
2018-04-08T14:26:38.249Z,95006.04
2018-04-08T14:29:06.695Z,95005.98
2018-04-08T14:31:35.858Z,95006.19
2018-04-08T14:34:05.341Z,94996.27
2018-04-08T14:36:33.857Z,95001.55
2018-04-08T14:39:02.313Z,94996.98
2018-04-08T14:41:30.808Z,95001.45
2018-04-08T14:43:59.239Z,94995.96
2018-04-08T14:46:27.651Z,94994.53
2018-04-08T14:48:57.093Z,95002.61
2018-04-08T14:51:25.515Z,94989.42
2018-04-08T14:53:55.186Z,94990.47
2018-04-08T14:56:23.581Z,94994.30
2018-04-08T14:58:51.990Z,94993.20
2018-04-08T15:01:21.089Z,94998.20
2018-04-08T15:03:49.477Z,95001.42
2018-04-08T15:06:17.870Z,94985.80
2018-04-08T15:08:46.333Z,94997.34
2018-04-08T15:11:14.783Z,95000.06
2018-04-08T15:13:43.200Z,95000.34
2018-04-08T15:16:11.638Z,94992.21
2018-04-08T15:18:40.066Z,94993.09
2018-04-08T15:21:08.456Z,94997.06
2018-04-08T15:23:37.313Z,94985.08
2018-04-08T15:26:05.706Z,94999.09
2018-04-08T15:28:34.084Z,95003.69
2018-04-08T15:31:02.860Z,94992.57
2018-04-08T15:33:31.297Z,94995.03
2018-04-08T15:35:59.692Z,94995.83
2018-04-08T15:38:28.912Z,94993.29
2018-04-08T15:40:57.305Z,94996.31
2018-04-08T15:43:25.694Z,94995.79
2018-04-08T15:45:54.128Z,94982.18
2018-04-08T15:48:22.577Z,95001.56
2018-04-08T15:50:50.985Z,95006.45
2018-04-08T15:53:19.456Z,95002.52
2018-04-08T15:55:47.985Z,95005.58
2018-04-08T15:58:16.376Z,95007.52
2018-04-08T16:00:44.838Z,95009.20
2018-04-08T16:03:13.287Z,95010.67
2018-04-08T16:05:41.855Z,95012.13
2018-04-08T16:08:10.253Z,95011.46
2018-04-08T16:10:38.730Z,95007.44
2018-04-08T16:13:07.354Z,95002.94
2018-04-08T16:15:35.766Z,95004.72
2018-04-08T16:18:04.232Z,95005.12
2018-04-08T16:20:32.685Z,95001.84
2018-04-08T16:23:01.134Z,95010.22
2018-04-08T16:25:29.596Z,95012.01
2018-04-08T16:27:58.019Z,95013.56
2018-04-08T16:30:26.408Z,95008.73
2018-04-08T16:32:54.931Z,95014.87
2018-04-08T16:35:23.373Z,95021.42
2018-04-08T16:37:51.816Z,95021.21
2018-04-08T16:40:20.263Z,95023.75
2018-04-08T16:42:48.683Z,95023.09
2018-04-08T16:45:17.083Z,95022.88
2018-04-08T16:47:45.544Z,95026.59
2018-04-08T16:50:13.920Z,95028.30
2018-04-08T16:52:42.354Z,95022.38
2018-04-08T16:55:10.759Z,95027.58
2018-04-08T16:57:39.226Z,95024.56
2018-04-08T17:00:07.630Z,95024.20
2018-04-08T17:02:36.049Z,95023.36
2018-04-08T17:05:04.485Z,95023.53
2018-04-08T17:07:33.028Z,95018.16
2018-04-08T17:10:01.483Z,95022.64
2018-04-08T17:12:29.884Z,95026.56
2018-04-08T17:14:58.263Z,95031.33
2018-04-08T17:17:26.762Z,95037.27
2018-04-08T17:19:55.210Z,95040.36
2018-04-08T17:22:23.606Z,95038.76
2018-04-08T17:24:52.059Z,95044.19
2018-04-08T17:27:20.695Z,95025.03
2018-04-08T17:29:49.145Z,95052.83
2018-04-08T17:32:17.648Z,95049.00
2018-04-08T17:34:46.044Z,95058.34
2018-04-08T17:37:14.476Z,95057.83
2018-04-08T17:39:42.949Z,95058.77
2018-04-08T17:42:11.422Z,95061.67
2018-04-08T17:44:39.885Z,95061.00
2018-04-08T17:47:08.280Z,95065.98
2018-04-08T17:49:36.863Z,95062.07
2018-04-08T17:52:05.339Z,95070.22
2018-04-08T17:54:33.769Z,95077.58
2018-04-08T17:57:02.225Z,95077.72
2018-04-08T17:59:30.610Z,95084.17
2018-04-08T18:01:59.056Z,95085.09
2018-04-08T18:04:27.513Z,95096.27
2018-04-08T18:06:56.382Z,95093.62
2018-04-08T18:09:26.327Z,95103.47
2018-04-08T18:11:54.819Z,95100.61
2018-04-08T18:14:23.263Z,95089.66
2018-04-08T18:16:51.664Z,95091.09
2018-04-08T18:19:20.073Z,95100.45
2018-04-08T18:21:48.544Z,95101.48
2018-04-08T18:24:16.942Z,95096.87
2018-04-08T18:26:45.388Z,95097.92
2018-04-08T18:29:13.802Z,95096.05
2018-04-08T18:31:42.239Z,95099.23
2018-04-08T18:34:10.629Z,95112.12
2018-04-08T18:36:39.131Z,95104.34
2018-04-08T18:39:07.753Z,95101.72
2018-04-08T18:41:36.212Z,95101.02
2018-04-08T18:44:04.660Z,95104.62
2018-04-08T18:46:33.084Z,95110.27
2018-04-08T18:49:01.539Z,95107.23
2018-04-08T18:51:30.008Z,95110.45
2018-04-08T18:53:58.456Z,95108.73
2018-04-08T18:56:26.943Z,95082.56
2018-04-08T18:58:55.542Z,95103.59
2018-04-08T19:01:23.980Z,95102.55
2018-04-08T19:03:52.389Z,95104.27
2018-04-08T19:06:20.857Z,95100.95
2018-04-08T19:08:49.527Z,95092.55
2018-04-08T19:11:18.121Z,95090.25
2018-04-08T19:13:46.777Z,95081.32
2018-04-08T19:16:15.239Z,95090.39
2018-04-08T19:18:43.665Z,95088.16
2018-04-08T19:21:12.094Z,95088.28
2018-04-08T19:23:40.589Z,95087.17
2018-04-08T19:26:09.058Z,95082.32
2018-04-08T19:28:37.462Z,95083.20
2018-04-08T19:31:05.902Z,95088.75
2018-04-08T19:33:34.329Z,95088.75
2018-04-08T19:36:02.769Z,95076.27
2018-04-08T19:38:31.174Z,95089.84
2018-04-08T19:40:59.623Z,95090.23
2018-04-08T19:43:28.028Z,95090.67
2018-04-08T19:45:56.425Z,95093.84
2018-04-08T19:48:24.892Z,95082.45
2018-04-08T19:50:53.305Z,95086.48
2018-04-08T19:53:21.762Z,95090.59
2018-04-08T19:55:50.121Z,95093.77
2018-04-08T19:58:18.554Z,95084.83
2018-04-08T20:00:47.298Z,95089.21
2018-04-08T20:03:15.759Z,95094.00
2018-04-08T20:05:44.166Z,95087.33
2018-04-08T20:08:12.591Z,95107.92
2018-04-08T20:10:41.021Z,95009.14
2018-04-08T20:13:09.456Z,95085.59
2018-04-08T20:15:37.908Z,95086.76
2018-04-08T20:18:06.332Z,95082.77
2018-04-08T20:20:34.748Z,95092.14
2018-04-08T20:23:03.168Z,95090.83
2018-04-08T20:25:31.605Z,95094.06
2018-04-08T20:28:00.064Z,95098.41
2018-04-08T20:30:28.458Z,95096.57
2018-04-08T20:32:56.975Z,95094.95
2018-04-08T20:35:25.381Z,95100.48
2018-04-08T20:37:53.830Z,95090.89
2018-04-08T20:40:22.319Z,95091.08
2018-04-08T20:42:50.759Z,95086.95
2018-04-08T20:45:19.139Z,95084.69
2018-04-08T20:47:47.601Z,95080.97
2018-04-08T20:50:15.986Z,95083.20
2018-04-08T20:52:44.390Z,95072.08
2018-04-08T20:55:12.844Z,95084.11
2018-04-08T20:57:41.240Z,95076.99
2018-04-08T21:00:09.754Z,95031.53
2018-04-08T21:02:38.153Z,95078.06
2018-04-08T21:05:06.590Z,95073.73
2018-04-08T21:07:34.961Z,95073.64
2018-04-08T21:10:03.368Z,95067.23
2018-04-08T21:12:31.840Z,95062.77
2018-04-08T21:15:00.221Z,95069.94
2018-04-08T21:17:28.699Z,95064.51
2018-04-08T21:19:57.105Z,95060.27
2018-04-08T21:22:25.488Z,95059.75
2018-04-08T21:24:53.924Z,95065.27
2018-04-08T21:27:22.341Z,95043.62
2018-04-08T21:29:50.780Z,95027.66
2018-04-08T21:32:19.281Z,95071.53
2018-04-08T21:34:47.768Z,95070.03
2018-04-08T21:37:16.370Z,95070.36
2018-04-08T21:39:44.794Z,95067.34
2018-04-08T21:42:13.177Z,95074.30
2018-04-08T21:44:41.676Z,95072.74
2018-04-08T21:47:10.128Z,95073.50
2018-04-08T21:49:38.585Z,95071.76
2018-04-08T21:52:07.002Z,95030.16
2018-04-08T21:54:35.383Z,95052.80
2018-04-08T21:57:03.840Z,95066.41
2018-04-08T21:59:32.221Z,95068.71
2018-04-08T22:02:00.634Z,95064.10
2018-04-08T22:04:29.036Z,95047.00
2018-04-08T22:06:57.457Z,95058.52
2018-04-08T22:09:25.895Z,95065.47
2018-04-08T22:11:54.308Z,95062.94
2018-04-08T22:14:22.706Z,95052.76
2018-04-08T22:16:51.162Z,95054.95
2018-04-08T22:19:19.626Z,95055.58
2018-04-08T22:21:48.065Z,95058.58
2018-04-08T22:24:16.503Z,95056.56
2018-04-08T22:26:44.906Z,95049.96
2018-04-08T22:29:13.357Z,95044.30
2018-04-08T22:31:41.737Z,95051.52
2018-04-08T22:34:10.176Z,95052.55
2018-04-08T22:36:38.571Z,95049.09
2018-04-08T22:39:07.013Z,95049.70
2018-04-08T22:41:35.478Z,95045.45
2018-04-08T22:44:03.970Z,95045.23
2018-04-08T22:46:32.404Z,95049.62
2018-04-08T22:49:00.833Z,95037.44
2018-04-08T22:51:29.242Z,95043.64
2018-04-08T22:53:57.699Z,95036.28
2018-04-08T22:56:26.082Z,95040.78
2018-04-08T22:58:54.508Z,94963.33
2018-04-08T23:01:22.957Z,95034.62
2018-04-08T23:03:51.383Z,95016.28
2018-04-08T23:06:19.804Z,95040.10
2018-04-08T23:08:48.235Z,95038.79
2018-04-08T23:11:16.662Z,95034.80
2018-04-08T23:13:45.061Z,95032.83
2018-04-08T23:16:13.501Z,95025.67
2018-04-08T23:18:41.995Z,95040.33
2018-04-08T23:21:10.402Z,95045.63
2018-04-08T23:23:38.872Z,95043.52
2018-04-08T23:26:07.279Z,95041.30
2018-04-08T23:28:35.694Z,95045.75
2018-04-08T23:31:04.150Z,95052.09
2018-04-08T23:33:32.541Z,95051.75
2018-04-08T23:36:00.965Z,95048.74
2018-04-08T23:38:29.410Z,95043.76
2018-04-08T23:40:57.805Z,95041.98
2018-04-08T23:43:26.223Z,95041.94
2018-04-08T23:45:54.633Z,95040.66
2018-04-08T23:48:23.096Z,95041.64
2018-04-08T23:50:51.480Z,95041.16
2018-04-08T23:53:19.931Z,95042.79
2018-04-08T23:55:48.316Z,95045.69
2018-04-08T23:58:16.761Z,95038.74
